Heinz Schepers — V2OM7 — position and weather

sailwx.info

Track history (hours):
 
Tides and Currents Weather Stations Pressure Air Temp Water Temp Dewpoint Dewpoint Depression Visibility Wind Speed Wind Dir Waves Ship Positions

Heinz Schepers

Last reported at 2016-Jun-30 22:33 UTC. Time now 2016-Jun-30 23:11 UTC.
Position N 36°54' E 012°21'.

Length 101 m; draft 5 m.

Type: Cargo ship. MMSI: 304596000.

Date/timePositionNaut miles runAvg speedWind from/ knotsBaromVisibWave heightAir tempDewpointWater temp
2016-Jun-30 22:33N 36°54' E 012°21'1110.7
2016-Jun-30 21:33N 36°59' E 012°09'1111.0
2016-Jun-30 20:33N 37°03' E 011°56'1111.2
2016-Jun-30 19:33N 37°08' E 011°44'1111.3
2016-Jun-30 18:34N 37°13' E 011°31'1111.0
2016-Jun-30 17:33N 37°18' E 011°19'1110.9
2016-Jun-30 16:31N 37°23' E 011°06'9 9.4
2016-Jun-30 15:33N 37°19' E 010°55'1010.3
2016-Jun-30 14:33N 37°11' E 010°47'1111.0
2016-Jun-30 13:33N 37°02' E 010°38'1510.9
2016-Jun-30 12:10N 36°51' E 010°26'8 2.8
2016-Jun-30 09:11N 36°48' E 010°16'0 0.0
2016-Jun-30 07:23N 36°48' E 010°16'  
2016-Jun-26 18:27N 36°49' E 010°22'0 0.0
2016-Jun-26 16:15N 36°49' E 010°22'0 0.0
2016-Jun-26 15:30N 36°49' E 010°22'  
Track history (hours):
 
Tides and Currents Weather Stations Pressure Air Temp Water Temp Dewpoint Dewpoint Depression Visibility Wind Speed Wind Dir Waves Ship Positions

Heinz Schepers

Last reported at 2016-Jun-30 22:33 UTC. Time now 2016-Jun-30 23:11 UTC.
Position N 36°54' E 012°21'.

Length 101 m; draft 5 m.

Type: Cargo ship. MMSI: 304596000.

Date/timePositionNaut miles runAvg speedWind from/ knotsBaromVisibWave heightAir tempDewpointWater temp
2016-Jun-30 22:33N 36°54' E 012°21'1110.7
2016-Jun-30 21:33N 36°59' E 012°09'1111.0
2016-Jun-30 20:33N 37°03' E 011°56'1111.2
2016-Jun-30 19:33N 37°08' E 011°44'1111.3
2016-Jun-30 18:34N 37°13' E 011°31'1111.0
2016-Jun-30 17:33N 37°18' E 011°19'1110.9
2016-Jun-30 16:31N 37°23' E 011°06'9 9.4
2016-Jun-30 15:33N 37°19' E 010°55'1010.3
2016-Jun-30 14:33N 37°11' E 010°47'1111.0
2016-Jun-30 13:33N 37°02' E 010°38'1510.9
2016-Jun-30 12:10N 36°51' E 010°26'8 2.8
2016-Jun-30 09:11N 36°48' E 010°16'0 0.0
2016-Jun-30 07:23N 36°48' E 010°16'  
2016-Jun-26 18:27N 36°49' E 010°22'0 0.0
2016-Jun-26 16:15N 36°49' E 010°22'0 0.0
2016-Jun-26 15:30N 36°49' E 010°22'  

Dump ship's entire track history